sensor_id;sensor_type;location;lat;lon;timestamp;P1;durP1;ratioP1;P2;durP2;ratioP2
13568;SDS011;6856;51.460;7.158;2023-04-03T00:01:19;4.27;;;3.20;;
13568;SDS011;6856;51.460;7.158;2023-04-03T00:03:53;4.30;;;3.33;;
13568;SDS011;6856;51.460;7.158;2023-04-03T00:06:29;4.00;;;3.07;;
13568;SDS011;6856;51.460;7.158;2023-04-03T00:09:04;3.93;;;3.03;;
13568;SDS011;6856;51.460;7.158;2023-04-03T00:11:40;4.27;;;3.17;;
13568;SDS011;6856;51.460;7.158;2023-04-03T00:14:14;3.37;;;2.87;;
13568;SDS011;6856;51.460;7.158;2023-04-03T00:16:48;5.13;;;3.50;;
13568;SDS011;6856;51.460;7.158;2023-04-03T00:19:22;4.60;;;3.63;;
13568;SDS011;6856;51.460;7.158;2023-04-03T00:21:57;4.77;;;3.20;;
13568;SDS011;6856;51.460;7.158;2023-04-03T00:24:31;4.03;;;3.30;;
13568;SDS011;6856;51.460;7.158;2023-04-03T00:27:05;5.97;;;3.30;;
13568;SDS011;6856;51.460;7.158;2023-04-03T00:29:39;4.20;;;3.03;;
13568;SDS011;6856;51.460;7.158;2023-04-03T00:32:13;4.60;;;3.03;;
13568;SDS011;6856;51.460;7.158;2023-04-03T00:34:47;4.10;;;3.10;;
13568;SDS011;6856;51.460;7.158;2023-04-03T00:37:22;4.33;;;3.10;;
13568;SDS011;6856;51.460;7.158;2023-04-03T00:39:56;4.57;;;3.20;;
13568;SDS011;6856;51.460;7.158;2023-04-03T00:42:30;3.63;;;2.90;;
13568;SDS011;6856;51.460;7.158;2023-04-03T00:48:02;4.50;;;3.47;;
13568;SDS011;6856;51.460;7.158;2023-04-03T00:50:40;5.03;;;3.57;;
13568;SDS011;6856;51.460;7.158;2023-04-03T00:53:21;4.57;;;3.47;;
13568;SDS011;6856;51.460;7.158;2023-04-03T00:55:58;4.03;;;3.27;;
13568;SDS011;6856;51.460;7.158;2023-04-03T00:58:33;4.33;;;3.77;;
13568;SDS011;6856;51.460;7.158;2023-04-03T01:01:15;3.63;;;3.10;;
13568;SDS011;6856;51.460;7.158;2023-04-03T01:03:54;5.03;;;3.60;;
13568;SDS011;6856;51.460;7.158;2023-04-03T01:06:29;4.17;;;3.53;;
13568;SDS011;6856;51.460;7.158;2023-04-03T01:09:09;3.90;;;3.10;;
13568;SDS011;6856;51.460;7.158;2023-04-03T01:11:43;4.03;;;3.40;;
13568;SDS011;6856;51.460;7.158;2023-04-03T01:14:17;5.70;;;3.77;;
13568;SDS011;6856;51.460;7.158;2023-04-03T01:16:52;4.80;;;3.90;;
13568;SDS011;6856;51.460;7.158;2023-04-03T01:19:27;5.27;;;3.97;;
13568;SDS011;6856;51.460;7.158;2023-04-03T01:22:04;4.37;;;3.57;;
13568;SDS011;6856;51.460;7.158;2023-04-03T01:24:54;6.37;;;3.63;;
13568;SDS011;6856;51.460;7.158;2023-04-03T01:27:28;4.60;;;3.00;;
13568;SDS011;6856;51.460;7.158;2023-04-03T01:30:02;4.63;;;3.53;;
13568;SDS011;6856;51.460;7.158;2023-04-03T01:32:38;5.13;;;3.63;;
13568;SDS011;6856;51.460;7.158;2023-04-03T01:35:12;4.00;;;3.13;;
13568;SDS011;6856;51.460;7.158;2023-04-03T01:37:46;4.00;;;3.07;;
13568;SDS011;6856;51.460;7.158;2023-04-03T01:40:21;3.93;;;2.93;;
13568;SDS011;6856;51.460;7.158;2023-04-03T01:42:54;4.07;;;3.03;;
13568;SDS011;6856;51.460;7.158;2023-04-03T01:45:29;4.63;;;3.10;;
13568;SDS011;6856;51.460;7.158;2023-04-03T01:48:05;4.40;;;2.90;;
13568;SDS011;6856;51.460;7.158;2023-04-03T01:50:39;3.70;;;2.83;;
13568;SDS011;6856;51.460;7.158;2023-04-03T01:53:13;4.03;;;2.70;;
13568;SDS011;6856;51.460;7.158;2023-04-03T01:55:48;3.83;;;2.53;;
13568;SDS011;6856;51.460;7.158;2023-04-03T01:58:22;2.90;;;2.40;;
13568;SDS011;6856;51.460;7.158;2023-04-03T02:00:55;9.17;;;3.10;;
13568;SDS011;6856;51.460;7.158;2023-04-03T02:03:31;3.70;;;2.33;;
13568;SDS011;6856;51.460;7.158;2023-04-03T02:06:05;3.47;;;2.57;;
13568;SDS011;6856;51.460;7.158;2023-04-03T02:08:40;2.73;;;2.20;;
13568;SDS011;6856;51.460;7.158;2023-04-03T02:11:14;3.67;;;2.30;;
13568;SDS011;6856;51.460;7.158;2023-04-03T02:13:47;3.97;;;2.50;;
13568;SDS011;6856;51.460;7.158;2023-04-03T02:16:21;3.90;;;2.70;;
13568;SDS011;6856;51.460;7.158;2023-04-03T02:18:56;3.70;;;2.47;;
13568;SDS011;6856;51.460;7.158;2023-04-03T02:21:30;4.97;;;2.43;;
13568;SDS011;6856;51.460;7.158;2023-04-03T02:24:04;3.33;;;2.33;;
13568;SDS011;6856;51.460;7.158;2023-04-03T02:26:39;3.83;;;2.33;;
13568;SDS011;6856;51.460;7.158;2023-04-03T02:29:13;3.77;;;2.50;;
13568;SDS011;6856;51.460;7.158;2023-04-03T02:31:48;3.50;;;2.17;;
13568;SDS011;6856;51.460;7.158;2023-04-03T02:34:23;3.63;;;2.10;;
13568;SDS011;6856;51.460;7.158;2023-04-03T02:36:57;2.50;;;1.97;;
13568;SDS011;6856;51.460;7.158;2023-04-03T02:39:31;2.70;;;1.90;;
13568;SDS011;6856;51.460;7.158;2023-04-03T02:42:05;3.43;;;1.97;;
13568;SDS011;6856;51.460;7.158;2023-04-03T02:44:39;2.93;;;1.70;;
13568;SDS011;6856;51.460;7.158;2023-04-03T02:47:14;2.80;;;1.90;;
13568;SDS011;6856;51.460;7.158;2023-04-03T02:49:49;2.93;;;1.87;;
13568;SDS011;6856;51.460;7.158;2023-04-03T02:52:24;2.40;;;1.80;;
13568;SDS011;6856;51.460;7.158;2023-04-03T02:54:58;2.93;;;2.20;;
13568;SDS011;6856;51.460;7.158;2023-04-03T02:57:32;2.60;;;1.60;;
13568;SDS011;6856;51.460;7.158;2023-04-03T03:00:07;2.90;;;1.80;;
13568;SDS011;6856;51.460;7.158;2023-04-03T03:02:42;3.40;;;1.90;;
13568;SDS011;6856;51.460;7.158;2023-04-03T03:05:17;2.77;;;1.80;;
13568;SDS011;6856;51.460;7.158;2023-04-03T03:07:52;4.93;;;1.70;;
13568;SDS011;6856;51.460;7.158;2023-04-03T03:10:27;4.37;;;2.03;;
13568;SDS011;6856;51.460;7.158;2023-04-03T03:13:00;2.50;;;1.60;;
13568;SDS011;6856;51.460;7.158;2023-04-03T03:15:34;2.53;;;1.57;;
13568;SDS011;6856;51.460;7.158;2023-04-03T03:18:08;2.40;;;1.70;;
13568;SDS011;6856;51.460;7.158;2023-04-03T03:20:43;2.73;;;1.70;;
13568;SDS011;6856;51.460;7.158;2023-04-03T03:23:17;2.50;;;1.60;;
13568;SDS011;6856;51.460;7.158;2023-04-03T03:25:54;2.30;;;1.50;;
13568;SDS011;6856;51.460;7.158;2023-04-03T03:28:29;3.13;;;1.60;;
13568;SDS011;6856;51.460;7.158;2023-04-03T03:31:03;2.90;;;1.77;;
13568;SDS011;6856;51.460;7.158;2023-04-03T03:33:38;3.00;;;1.90;;
13568;SDS011;6856;51.460;7.158;2023-04-03T03:36:14;3.17;;;1.40;;
13568;SDS011;6856;51.460;7.158;2023-04-03T03:38:48;2.80;;;1.53;;
13568;SDS011;6856;51.460;7.158;2023-04-03T03:41:21;3.37;;;1.53;;
13568;SDS011;6856;51.460;7.158;2023-04-03T03:43:56;3.10;;;1.60;;
13568;SDS011;6856;51.460;7.158;2023-04-03T03:46:30;2.73;;;1.43;;
13568;SDS011;6856;51.460;7.158;2023-04-03T03:49:04;2.53;;;1.47;;
13568;SDS011;6856;51.460;7.158;2023-04-03T03:51:40;2.33;;;1.60;;
13568;SDS011;6856;51.460;7.158;2023-04-03T03:54:14;2.27;;;1.40;;
13568;SDS011;6856;51.460;7.158;2023-04-03T03:56:48;2.63;;;1.70;;
13568;SDS011;6856;51.460;7.158;2023-04-03T03:59:21;3.23;;;1.50;;
13568;SDS011;6856;51.460;7.158;2023-04-03T04:01:55;2.77;;;1.67;;
13568;SDS011;6856;51.460;7.158;2023-04-03T04:04:29;3.60;;;1.70;;
13568;SDS011;6856;51.460;7.158;2023-04-03T04:07:05;3.67;;;2.00;;
13568;SDS011;6856;51.460;7.158;2023-04-03T04:09:39;1.63;;;1.43;;
13568;SDS011;6856;51.460;7.158;2023-04-03T04:12:13;3.23;;;1.70;;
13568;SDS011;6856;51.460;7.158;2023-04-03T04:14:47;1.67;;;1.40;;
13568;SDS011;6856;51.460;7.158;2023-04-03T04:17:21;2.63;;;1.40;;
13568;SDS011;6856;51.460;7.158;2023-04-03T04:19:54;4.13;;;1.80;;
13568;SDS011;6856;51.460;7.158;2023-04-03T04:22:30;5.80;;;1.63;;
13568;SDS011;6856;51.460;7.158;2023-04-03T04:25:04;3.63;;;1.70;;
13568;SDS011;6856;51.460;7.158;2023-04-03T04:27:38;3.27;;;2.13;;
13568;SDS011;6856;51.460;7.158;2023-04-03T04:30:12;2.80;;;1.60;;
13568;SDS011;6856;51.460;7.158;2023-04-03T04:32:47;2.13;;;1.60;;
13568;SDS011;6856;51.460;7.158;2023-04-03T04:35:21;2.87;;;1.67;;
13568;SDS011;6856;51.460;7.158;2023-04-03T04:37:56;3.17;;;1.67;;
13568;SDS011;6856;51.460;7.158;2023-04-03T04:40:31;3.60;;;1.60;;
13568;SDS011;6856;51.460;7.158;2023-04-03T04:43:05;2.10;;;1.53;;
13568;SDS011;6856;51.460;7.158;2023-04-03T04:45:38;2.60;;;1.43;;
13568;SDS011;6856;51.460;7.158;2023-04-03T04:48:12;4.87;;;1.87;;
13568;SDS011;6856;51.460;7.158;2023-04-03T04:50:46;3.37;;;1.60;;
13568;SDS011;6856;51.460;7.158;2023-04-03T04:53:22;2.50;;;1.37;;
13568;SDS011;6856;51.460;7.158;2023-04-03T04:55:56;3.20;;;1.60;;
13568;SDS011;6856;51.460;7.158;2023-04-03T04:58:30;2.67;;;1.50;;
13568;SDS011;6856;51.460;7.158;2023-04-03T05:01:06;3.17;;;1.57;;
13568;SDS011;6856;51.460;7.158;2023-04-03T05:03:42;2.47;;;1.87;;
13568;SDS011;6856;51.460;7.158;2023-04-03T05:06:16;3.70;;;2.00;;
13568;SDS011;6856;51.460;7.158;2023-04-03T05:08:51;2.33;;;1.53;;
13568;SDS011;6856;51.460;7.158;2023-04-03T05:11:26;3.60;;;1.80;;
13568;SDS011;6856;51.460;7.158;2023-04-03T05:14:02;3.63;;;1.50;;
13568;SDS011;6856;51.460;7.158;2023-04-03T05:16:38;2.43;;;1.50;;
13568;SDS011;6856;51.460;7.158;2023-04-03T05:19:11;2.67;;;1.60;;
13568;SDS011;6856;51.460;7.158;2023-04-03T05:21:45;2.63;;;1.70;;
13568;SDS011;6856;51.460;7.158;2023-04-03T05:24:20;2.87;;;1.50;;
13568;SDS011;6856;51.460;7.158;2023-04-03T05:26:59;3.40;;;1.73;;
13568;SDS011;6856;51.460;7.158;2023-04-03T05:29:34;2.47;;;1.50;;
13568;SDS011;6856;51.460;7.158;2023-04-03T05:32:08;2.43;;;1.43;;
13568;SDS011;6856;51.460;7.158;2023-04-03T05:34:42;2.07;;;1.43;;
13568;SDS011;6856;51.460;7.158;2023-04-03T05:37:16;2.83;;;1.50;;
13568;SDS011;6856;51.460;7.158;2023-04-03T05:39:51;2.67;;;1.70;;
13568;SDS011;6856;51.460;7.158;2023-04-03T05:42:25;2.30;;;1.43;;
13568;SDS011;6856;51.460;7.158;2023-04-03T05:45:00;2.67;;;1.50;;
13568;SDS011;6856;51.460;7.158;2023-04-03T05:47:33;3.67;;;2.13;;
13568;SDS011;6856;51.460;7.158;2023-04-03T05:50:07;3.57;;;1.90;;
13568;SDS011;6856;51.460;7.158;2023-04-03T05:52:42;3.23;;;1.70;;
13568;SDS011;6856;51.460;7.158;2023-04-03T05:55:23;2.97;;;1.80;;
13568;SDS011;6856;51.460;7.158;2023-04-03T05:57:57;3.00;;;1.97;;
13568;SDS011;6856;51.460;7.158;2023-04-03T06:00:32;3.30;;;2.00;;
13568;SDS011;6856;51.460;7.158;2023-04-03T06:03:06;4.80;;;1.80;;
13568;SDS011;6856;51.460;7.158;2023-04-03T06:05:40;3.87;;;2.07;;
13568;SDS011;6856;51.460;7.158;2023-04-03T06:08:14;3.53;;;1.90;;
13568;SDS011;6856;51.460;7.158;2023-04-03T06:10:49;2.93;;;1.67;;
13568;SDS011;6856;51.460;7.158;2023-04-03T06:13:23;2.17;;;1.80;;
13568;SDS011;6856;51.460;7.158;2023-04-03T06:15:58;2.60;;;1.70;;
13568;SDS011;6856;51.460;7.158;2023-04-03T06:18:32;3.70;;;2.17;;
13568;SDS011;6856;51.460;7.158;2023-04-03T06:21:06;4.37;;;2.20;;
13568;SDS011;6856;51.460;7.158;2023-04-03T06:23:39;3.17;;;1.63;;
13568;SDS011;6856;51.460;7.158;2023-04-03T06:26:16;3.93;;;1.80;;
13568;SDS011;6856;51.460;7.158;2023-04-03T06:28:50;4.33;;;2.13;;
13568;SDS011;6856;51.460;7.158;2023-04-03T06:31:24;3.27;;;1.87;;
13568;SDS011;6856;51.460;7.158;2023-04-03T06:34:02;3.43;;;2.00;;
13568;SDS011;6856;51.460;7.158;2023-04-03T06:36:39;3.83;;;1.57;;
13568;SDS011;6856;51.460;7.158;2023-04-03T06:39:15;4.20;;;1.87;;
13568;SDS011;6856;51.460;7.158;2023-04-03T06:41:54;3.87;;;2.03;;
13568;SDS011;6856;51.460;7.158;2023-04-03T06:44:27;3.33;;;2.10;;
13568;SDS011;6856;51.460;7.158;2023-04-03T06:47:02;3.43;;;1.80;;
13568;SDS011;6856;51.460;7.158;2023-04-03T06:49:36;3.83;;;1.77;;
13568;SDS011;6856;51.460;7.158;2023-04-03T06:52:10;3.87;;;1.80;;
13568;SDS011;6856;51.460;7.158;2023-04-03T06:54:44;4.27;;;1.77;;
13568;SDS011;6856;51.460;7.158;2023-04-03T06:57:20;4.13;;;1.73;;
13568;SDS011;6856;51.460;7.158;2023-04-03T06:59:54;4.57;;;2.17;;
13568;SDS011;6856;51.460;7.158;2023-04-03T07:02:28;3.73;;;1.77;;
13568;SDS011;6856;51.460;7.158;2023-04-03T07:05:02;4.33;;;2.00;;
13568;SDS011;6856;51.460;7.158;2023-04-03T07:07:36;6.97;;;1.93;;
13568;SDS011;6856;51.460;7.158;2023-04-03T07:10:10;7.00;;;2.13;;
13568;SDS011;6856;51.460;7.158;2023-04-03T07:12:45;4.77;;;1.90;;
13568;SDS011;6856;51.460;7.158;2023-04-03T07:15:19;3.40;;;1.60;;
13568;SDS011;6856;51.460;7.158;2023-04-03T07:17:53;5.63;;;2.00;;
13568;SDS011;6856;51.460;7.158;2023-04-03T07:20:27;4.53;;;1.83;;
13568;SDS011;6856;51.460;7.158;2023-04-03T07:23:00;5.60;;;2.37;;
13568;SDS011;6856;51.460;7.158;2023-04-03T07:25:34;3.03;;;1.97;;
13568;SDS011;6856;51.460;7.158;2023-04-03T07:28:11;2.63;;;1.60;;
13568;SDS011;6856;51.460;7.158;2023-04-03T07:30:45;4.17;;;1.90;;
13568;SDS011;6856;51.460;7.158;2023-04-03T07:33:22;6.60;;;1.90;;
13568;SDS011;6856;51.460;7.158;2023-04-03T07:35:57;3.53;;;1.87;;
13568;SDS011;6856;51.460;7.158;2023-04-03T07:38:32;3.93;;;1.30;;
13568;SDS011;6856;51.460;7.158;2023-04-03T07:41:07;3.00;;;1.60;;
13568;SDS011;6856;51.460;7.158;2023-04-03T07:43:48;4.43;;;1.73;;
13568;SDS011;6856;51.460;7.158;2023-04-03T07:46:23;3.13;;;1.53;;
13568;SDS011;6856;51.460;7.158;2023-04-03T07:48:57;4.40;;;1.90;;
13568;SDS011;6856;51.460;7.158;2023-04-03T07:51:31;5.07;;;2.07;;
13568;SDS011;6856;51.460;7.158;2023-04-03T07:54:06;2.43;;;1.47;;
13568;SDS011;6856;51.460;7.158;2023-04-03T07:56:40;2.90;;;1.60;;
13568;SDS011;6856;51.460;7.158;2023-04-03T07:59:16;4.33;;;1.83;;
13568;SDS011;6856;51.460;7.158;2023-04-03T08:01:51;2.70;;;1.73;;
13568;SDS011;6856;51.460;7.158;2023-04-03T08:04:24;4.50;;;1.67;;
13568;SDS011;6856;51.460;7.158;2023-04-03T08:06:58;5.80;;;1.90;;
13568;SDS011;6856;51.460;7.158;2023-04-03T08:09:32;3.50;;;1.53;;
13568;SDS011;6856;51.460;7.158;2023-04-03T08:12:06;3.27;;;1.97;;
13568;SDS011;6856;51.460;7.158;2023-04-03T08:14:44;3.57;;;1.40;;
13568;SDS011;6856;51.460;7.158;2023-04-03T08:17:17;3.50;;;1.60;;
13568;SDS011;6856;51.460;7.158;2023-04-03T08:19:51;3.20;;;1.80;;
13568;SDS011;6856;51.460;7.158;2023-04-03T08:22:25;4.03;;;1.60;;
13568;SDS011;6856;51.460;7.158;2023-04-03T08:24:59;3.67;;;1.67;;
13568;SDS011;6856;51.460;7.158;2023-04-03T08:27:33;4.30;;;1.70;;
13568;SDS011;6856;51.460;7.158;2023-04-03T08:30:09;4.07;;;1.93;;
13568;SDS011;6856;51.460;7.158;2023-04-03T08:32:45;2.33;;;1.50;;
13568;SDS011;6856;51.460;7.158;2023-04-03T08:35:18;4.73;;;1.53;;
13568;SDS011;6856;51.460;7.158;2023-04-03T08:37:52;1.57;;;1.10;;
13568;SDS011;6856;51.460;7.158;2023-04-03T08:40:26;4.10;;;1.73;;
13568;SDS011;6856;51.460;7.158;2023-04-03T08:43:05;3.33;;;1.70;;
13568;SDS011;6856;51.460;7.158;2023-04-03T08:46:05;2.87;;;1.20;;
13568;SDS011;6856;51.460;7.158;2023-04-03T08:48:44;3.07;;;1.53;;
13568;SDS011;6856;51.460;7.158;2023-04-03T08:51:19;3.87;;;1.50;;
13568;SDS011;6856;51.460;7.158;2023-04-03T08:53:55;2.60;;;1.40;;
13568;SDS011;6856;51.460;7.158;2023-04-03T08:56:35;1.93;;;1.27;;
13568;SDS011;6856;51.460;7.158;2023-04-03T08:59:10;1.40;;;1.10;;
13568;SDS011;6856;51.460;7.158;2023-04-03T09:01:54;3.20;;;1.40;;
13568;SDS011;6856;51.460;7.158;2023-04-03T09:04:33;2.93;;;1.30;;
13568;SDS011;6856;51.460;7.158;2023-04-03T09:07:08;2.80;;;1.23;;
13568;SDS011;6856;51.460;7.158;2023-04-03T09:09:52;2.13;;;1.03;;
13568;SDS011;6856;51.460;7.158;2023-04-03T09:12:27;2.53;;;1.33;;
13568;SDS011;6856;51.460;7.158;2023-04-03T09:15:15;2.03;;;1.30;;
13568;SDS011;6856;51.460;7.158;2023-04-03T09:18:13;4.00;;;1.40;;
13568;SDS011;6856;51.460;7.158;2023-04-03T09:20:56;2.20;;;1.20;;
13568;SDS011;6856;51.460;7.158;2023-04-03T09:23:41;2.47;;;1.20;;
13568;SDS011;6856;51.460;7.158;2023-04-03T09:26:21;2.97;;;1.20;;
13568;SDS011;6856;51.460;7.158;2023-04-03T09:29:02;2.83;;;1.30;;
13568;SDS011;6856;51.460;7.158;2023-04-03T09:31:42;1.83;;;1.33;;
13568;SDS011;6856;51.460;7.158;2023-04-03T09:34:20;2.63;;;1.07;;
13568;SDS011;6856;51.460;7.158;2023-04-03T09:36:59;2.60;;;1.03;;
13568;SDS011;6856;51.460;7.158;2023-04-03T09:39:48;1.97;;;1.00;;
13568;SDS011;6856;51.460;7.158;2023-04-03T09:42:27;2.70;;;0.90;;
13568;SDS011;6856;51.460;7.158;2023-04-03T09:45:05;0.93;;;0.77;;
13568;SDS011;6856;51.460;7.158;2023-04-03T09:48:08;2.33;;;1.10;;
13568;SDS011;6856;51.460;7.158;2023-04-03T09:50:59;1.80;;;0.90;;
13568;SDS011;6856;51.460;7.158;2023-04-03T09:53:35;1.80;;;1.00;;
13568;SDS011;6856;51.460;7.158;2023-04-03T09:56:19;1.93;;;1.10;;
13568;SDS011;6856;51.460;7.158;2023-04-03T09:59:06;1.60;;;0.90;;
13568;SDS011;6856;51.460;7.158;2023-04-03T10:01:56;3.43;;;1.20;;
13568;SDS011;6856;51.460;7.158;2023-04-03T10:04:37;1.77;;;1.20;;
13568;SDS011;6856;51.460;7.158;2023-04-03T10:07:28;2.80;;;1.30;;
13568;SDS011;6856;51.460;7.158;2023-04-03T10:10:15;3.17;;;1.27;;
13568;SDS011;6856;51.460;7.158;2023-04-03T10:13:03;1.50;;;0.90;;
13568;SDS011;6856;51.460;7.158;2023-04-03T10:15:45;3.13;;;1.10;;
13568;SDS011;6856;51.460;7.158;2023-04-03T10:18:29;2.70;;;1.10;;
13568;SDS011;6856;51.460;7.158;2023-04-03T10:21:15;1.53;;;1.00;;
13568;SDS011;6856;51.460;7.158;2023-04-03T10:24:10;2.40;;;1.20;;
13568;SDS011;6856;51.460;7.158;2023-04-03T10:26:51;1.97;;;1.10;;
13568;SDS011;6856;51.460;7.158;2023-04-03T10:29:36;1.83;;;1.10;;
13568;SDS011;6856;51.460;7.158;2023-04-03T10:32:22;1.77;;;1.00;;
13568;SDS011;6856;51.460;7.158;2023-04-03T10:35:18;2.37;;;1.00;;
13568;SDS011;6856;51.460;7.158;2023-04-03T10:38:10;1.90;;;1.00;;
13568;SDS011;6856;51.460;7.158;2023-04-03T10:40:57;1.80;;;1.10;;
13568;SDS011;6856;51.460;7.158;2023-04-03T10:43:40;3.27;;;1.13;;
13568;SDS011;6856;51.460;7.158;2023-04-03T10:46:27;2.60;;;1.27;;
13568;SDS011;6856;51.460;7.158;2023-04-03T10:49:17;2.37;;;1.20;;
13568;SDS011;6856;51.460;7.158;2023-04-03T10:52:17;3.20;;;1.40;;
13568;SDS011;6856;51.460;7.158;2023-04-03T10:55:01;2.03;;;1.00;;
13568;SDS011;6856;51.460;7.158;2023-04-03T10:57:54;2.60;;;1.17;;
13568;SDS011;6856;51.460;7.158;2023-04-03T11:00:37;3.10;;;1.30;;
13568;SDS011;6856;51.460;7.158;2023-04-03T11:03:17;2.50;;;1.10;;
13568;SDS011;6856;51.460;7.158;2023-04-03T11:06:05;2.00;;;1.10;;
13568;SDS011;6856;51.460;7.158;2023-04-03T11:08:44;2.70;;;1.00;;
13568;SDS011;6856;51.460;7.158;2023-04-03T11:11:26;2.30;;;1.10;;
13568;SDS011;6856;51.460;7.158;2023-04-03T11:14:11;2.87;;;1.10;;
13568;SDS011;6856;51.460;7.158;2023-04-03T11:17:01;1.77;;;1.10;;
13568;SDS011;6856;51.460;7.158;2023-04-03T11:19:52;1.80;;;1.07;;
13568;SDS011;6856;51.460;7.158;2023-04-03T11:22:41;1.43;;;0.90;;
13568;SDS011;6856;51.460;7.158;2023-04-03T11:25:19;1.60;;;1.00;;
13568;SDS011;6856;51.460;7.158;2023-04-03T11:28:00;2.60;;;1.20;;
13568;SDS011;6856;51.460;7.158;2023-04-03T11:30:39;1.97;;;1.10;;
13568;SDS011;6856;51.460;7.158;2023-04-03T11:33:36;4.63;;;1.40;;
13568;SDS011;6856;51.460;7.158;2023-04-03T11:36:23;1.80;;;0.90;;
13568;SDS011;6856;51.460;7.158;2023-04-03T11:39:09;2.23;;;0.90;;
13568;SDS011;6856;51.460;7.158;2023-04-03T11:41:56;2.07;;;0.80;;
13568;SDS011;6856;51.460;7.158;2023-04-03T11:44:49;2.23;;;1.00;;
13568;SDS011;6856;51.460;7.158;2023-04-03T11:47:47;1.30;;;0.90;;
13568;SDS011;6856;51.460;7.158;2023-04-03T11:50:30;1.10;;;0.80;;
13568;SDS011;6856;51.460;7.158;2023-04-03T11:53:27;1.37;;;0.77;;
13568;SDS011;6856;51.460;7.158;2023-04-03T11:59:15;0.83;;;0.70;;
13568;SDS011;6856;51.460;7.158;2023-04-03T12:01:57;0.77;;;0.67;;
13568;SDS011;6856;51.460;7.158;2023-04-03T12:04:32;1.40;;;0.90;;
13568;SDS011;6856;51.460;7.158;2023-04-03T12:07:12;1.37;;;0.70;;
13568;SDS011;6856;51.460;7.158;2023-04-03T12:09:56;0.77;;;0.73;;
13568;SDS011;6856;51.460;7.158;2023-04-03T12:12:41;4.00;;;0.90;;
13568;SDS011;6856;51.460;7.158;2023-04-03T12:15:20;1.57;;;0.80;;
13568;SDS011;6856;51.460;7.158;2023-04-03T12:18:40;1.67;;;0.80;;
13568;SDS011;6856;51.460;7.158;2023-04-03T12:22:05;1.90;;;0.90;;
13568;SDS011;6856;51.460;7.158;2023-04-03T12:24:48;2.67;;;0.90;;
13568;SDS011;6856;51.460;7.158;2023-04-03T12:27:28;1.93;;;1.10;;
13568;SDS011;6856;51.460;7.158;2023-04-03T12:30:19;1.73;;;1.10;;
13568;SDS011;6856;51.460;7.158;2023-04-03T12:36:05;1.67;;;0.80;;
13568;SDS011;6856;51.460;7.158;2023-04-03T12:42:18;2.33;;;0.97;;
13568;SDS011;6856;51.460;7.158;2023-04-03T12:45:30;1.93;;;0.90;;
13568;SDS011;6856;51.460;7.158;2023-04-03T12:48:17;0.90;;;0.80;;
13568;SDS011;6856;51.460;7.158;2023-04-03T12:50:57;1.87;;;1.00;;
13568;SDS011;6856;51.460;7.158;2023-04-03T12:53:33;2.03;;;0.90;;
13568;SDS011;6856;51.460;7.158;2023-04-03T12:56:21;2.27;;;0.83;;
13568;SDS011;6856;51.460;7.158;2023-04-03T12:59:12;2.33;;;0.80;;
13568;SDS011;6856;51.460;7.158;2023-04-03T13:01:55;2.00;;;0.90;;
13568;SDS011;6856;51.460;7.158;2023-04-03T13:04:34;2.30;;;1.03;;
13568;SDS011;6856;51.460;7.158;2023-04-03T13:07:18;2.10;;;0.90;;
13568;SDS011;6856;51.460;7.158;2023-04-03T13:09:59;1.80;;;0.80;;
13568;SDS011;6856;51.460;7.158;2023-04-03T13:12:48;1.60;;;0.93;;
13568;SDS011;6856;51.460;7.158;2023-04-03T13:15:24;3.73;;;0.80;;
13568;SDS011;6856;51.460;7.158;2023-04-03T13:18:00;3.00;;;1.00;;
13568;SDS011;6856;51.460;7.158;2023-04-03T13:20:35;2.57;;;0.80;;
13568;SDS011;6856;51.460;7.158;2023-04-03T13:23:10;0.87;;;0.70;;
13568;SDS011;6856;51.460;7.158;2023-04-03T13:25:52;1.27;;;0.90;;
13568;SDS011;6856;51.460;7.158;2023-04-03T13:28:28;1.07;;;0.77;;
13568;SDS011;6856;51.460;7.158;2023-04-03T13:31:06;3.87;;;0.90;;
13568;SDS011;6856;51.460;7.158;2023-04-03T13:33:54;1.37;;;0.90;;
13568;SDS011;6856;51.460;7.158;2023-04-03T13:36:36;4.27;;;1.07;;
13568;SDS011;6856;51.460;7.158;2023-04-03T13:39:21;2.33;;;0.90;;
13568;SDS011;6856;51.460;7.158;2023-04-03T13:41:59;2.00;;;0.80;;
13568;SDS011;6856;51.460;7.158;2023-04-03T13:44:48;2.20;;;1.10;;
13568;SDS011;6856;51.460;7.158;2023-04-03T13:47:39;2.83;;;0.73;;
13568;SDS011;6856;51.460;7.158;2023-04-03T13:50:15;1.57;;;1.00;;
13568;SDS011;6856;51.460;7.158;2023-04-03T13:52:54;2.20;;;1.00;;
13568;SDS011;6856;51.460;7.158;2023-04-03T13:55:35;2.03;;;0.83;;
13568;SDS011;6856;51.460;7.158;2023-04-03T13:58:28;2.77;;;1.00;;
13568;SDS011;6856;51.460;7.158;2023-04-03T14:01:09;1.87;;;1.00;;
13568;SDS011;6856;51.460;7.158;2023-04-03T14:03:52;1.77;;;0.93;;
13568;SDS011;6856;51.460;7.158;2023-04-03T14:06:29;2.40;;;1.00;;
13568;SDS011;6856;51.460;7.158;2023-04-03T14:09:03;1.70;;;0.73;;
13568;SDS011;6856;51.460;7.158;2023-04-03T14:11:37;2.37;;;1.00;;
13568;SDS011;6856;51.460;7.158;2023-04-03T14:14:12;1.07;;;0.73;;
13568;SDS011;6856;51.460;7.158;2023-04-03T14:16:53;1.00;;;0.77;;
13568;SDS011;6856;51.460;7.158;2023-04-03T14:19:29;1.73;;;0.80;;
13568;SDS011;6856;51.460;7.158;2023-04-03T14:22:11;1.10;;;0.80;;
13568;SDS011;6856;51.460;7.158;2023-04-03T14:24:49;1.63;;;0.80;;
13568;SDS011;6856;51.460;7.158;2023-04-03T14:27:24;1.23;;;0.87;;
13568;SDS011;6856;51.460;7.158;2023-04-03T14:30:01;2.47;;;0.83;;
13568;SDS011;6856;51.460;7.158;2023-04-03T14:32:40;2.17;;;1.00;;
13568;SDS011;6856;51.460;7.158;2023-04-03T14:35:15;1.47;;;0.83;;
13568;SDS011;6856;51.460;7.158;2023-04-03T14:37:50;1.27;;;0.70;;
13568;SDS011;6856;51.460;7.158;2023-04-03T14:40:26;0.97;;;0.80;;
13568;SDS011;6856;51.460;7.158;2023-04-03T14:43:00;3.33;;;1.07;;
13568;SDS011;6856;51.460;7.158;2023-04-03T14:45:34;1.63;;;0.80;;
13568;SDS011;6856;51.460;7.158;2023-04-03T14:48:10;2.73;;;1.03;;
13568;SDS011;6856;51.460;7.158;2023-04-03T14:50:53;3.03;;;1.03;;
13568;SDS011;6856;51.460;7.158;2023-04-03T14:53:36;1.37;;;0.73;;
13568;SDS011;6856;51.460;7.158;2023-04-03T14:56:12;2.03;;;0.70;;
13568;SDS011;6856;51.460;7.158;2023-04-03T14:58:48;1.50;;;0.90;;
13568;SDS011;6856;51.460;7.158;2023-04-03T15:01:28;3.53;;;1.00;;
13568;SDS011;6856;51.460;7.158;2023-04-03T15:04:04;1.13;;;0.80;;
13568;SDS011;6856;51.460;7.158;2023-04-03T15:06:43;1.70;;;0.97;;
13568;SDS011;6856;51.460;7.158;2023-04-03T15:09:19;0.80;;;0.73;;
13568;SDS011;6856;51.460;7.158;2023-04-03T15:11:55;0.87;;;0.80;;
13568;SDS011;6856;51.460;7.158;2023-04-03T15:14:29;2.97;;;0.93;;
13568;SDS011;6856;51.460;7.158;2023-04-03T15:17:08;2.53;;;1.00;;
13568;SDS011;6856;51.460;7.158;2023-04-03T15:19:49;2.40;;;0.90;;
13568;SDS011;6856;51.460;7.158;2023-04-03T15:22:24;1.77;;;0.93;;
13568;SDS011;6856;51.460;7.158;2023-04-03T15:24:58;3.10;;;0.90;;
13568;SDS011;6856;51.460;7.158;2023-04-03T15:27:31;1.63;;;0.90;;
13568;SDS011;6856;51.460;7.158;2023-04-03T15:30:06;5.53;;;1.03;;
13568;SDS011;6856;51.460;7.158;2023-04-03T15:32:46;3.40;;;1.10;;
13568;SDS011;6856;51.460;7.158;2023-04-03T15:35:22;1.67;;;0.90;;
13568;SDS011;6856;51.460;7.158;2023-04-03T15:37:56;2.87;;;1.30;;
13568;SDS011;6856;51.460;7.158;2023-04-03T15:40:30;3.27;;;1.10;;
13568;SDS011;6856;51.460;7.158;2023-04-03T15:43:04;2.53;;;1.03;;
13568;SDS011;6856;51.460;7.158;2023-04-03T15:45:39;1.70;;;1.03;;
13568;SDS011;6856;51.460;7.158;2023-04-03T15:48:14;1.80;;;0.90;;
13568;SDS011;6856;51.460;7.158;2023-04-03T15:50:51;1.33;;;0.87;;
13568;SDS011;6856;51.460;7.158;2023-04-03T15:53:28;3.50;;;1.30;;
13568;SDS011;6856;51.460;7.158;2023-04-03T15:56:01;4.73;;;1.20;;
13568;SDS011;6856;51.460;7.158;2023-04-03T15:58:36;2.93;;;1.30;;
13568;SDS011;6856;51.460;7.158;2023-04-03T16:01:09;1.93;;;0.87;;
13568;SDS011;6856;51.460;7.158;2023-04-03T16:03:44;1.73;;;0.97;;
13568;SDS011;6856;51.460;7.158;2023-04-03T16:06:20;2.80;;;1.40;;
13568;SDS011;6856;51.460;7.158;2023-04-03T16:08:54;2.63;;;1.10;;
13568;SDS011;6856;51.460;7.158;2023-04-03T16:11:30;2.83;;;0.90;;
13568;SDS011;6856;51.460;7.158;2023-04-03T16:14:04;3.10;;;1.20;;
13568;SDS011;6856;51.460;7.158;2023-04-03T16:16:37;2.30;;;1.03;;
13568;SDS011;6856;51.460;7.158;2023-04-03T16:19:11;4.13;;;0.90;;